createdAt,value
2022-11-03T00:01:41.764Z,9.50
2022-11-03T00:04:11.287Z,9.50
2022-11-03T00:06:38.917Z,9.50
2022-11-03T00:09:11.225Z,9.50
2022-11-03T00:11:38.725Z,9.50
2022-11-03T00:14:06.435Z,9.50
2022-11-03T00:16:33.158Z,9.60
2022-11-03T00:18:59.759Z,9.60
2022-11-03T00:21:26.633Z,9.60
2022-11-03T00:23:53.939Z,9.60
2022-11-03T00:26:28.263Z,9.60
2022-11-03T00:29:00.675Z,9.60
2022-11-03T00:31:32.963Z,9.60
2022-11-03T00:34:00.804Z,9.60
2022-11-03T00:36:33.465Z,9.60
2022-11-03T00:39:00.295Z,9.60
2022-11-03T00:41:27.238Z,9.60
2022-11-03T00:43:54.472Z,9.60
2022-11-03T00:46:22.517Z,9.60
2022-11-03T00:48:49.668Z,9.60
2022-11-03T00:51:22.160Z,9.60
2022-11-03T00:53:52.246Z,9.60
2022-11-03T00:56:23.317Z,9.60
2022-11-03T00:58:51.199Z,9.60
2022-11-03T01:01:23.069Z,9.60
2022-11-03T01:04:11.540Z,9.70
2022-11-03T01:06:55.325Z,9.60
2022-11-03T01:09:30.912Z,9.70
2022-11-03T01:12:18.439Z,9.70
2022-11-03T01:14:48.080Z,9.70
2022-11-03T01:17:20.416Z,9.80
2022-11-03T01:19:47.431Z,9.80
2022-11-03T01:22:15.001Z,9.90
2022-11-03T01:24:42.876Z,9.80
2022-11-03T01:27:11.089Z,9.90
2022-11-03T01:29:37.861Z,9.90
2022-11-03T01:32:04.961Z,9.90
2022-11-03T01:34:31.817Z,9.90
2022-11-03T01:36:58.378Z,9.90
2022-11-03T01:39:24.994Z,9.90
2022-11-03T01:41:52.431Z,9.90
2022-11-03T01:44:18.999Z,10.00
2022-11-03T01:47:22.600Z,10.00
2022-11-03T01:50:01.778Z,10.10
2022-11-03T01:52:38.292Z,10.10
2022-11-03T01:55:08.965Z,10.10
2022-11-03T01:57:43.522Z,10.10
2022-11-03T02:00:11.033Z,10.20
2022-11-03T02:02:37.740Z,10.20
2022-11-03T02:05:06.157Z,10.20
2022-11-03T02:07:44.415Z,10.20
2022-11-03T02:10:11.341Z,10.10
2022-11-03T02:12:38.180Z,10.10
2022-11-03T02:15:09.552Z,10.10
2022-11-03T02:17:38.405Z,10.10
2022-11-03T02:20:11.308Z,10.10
2022-11-03T02:22:53.412Z,10.10
2022-11-03T02:25:35.361Z,10.10
2022-11-03T02:28:03.215Z,10.10
2022-11-03T02:30:53.348Z,10.10
2022-11-03T02:33:53.745Z,10.10
2022-11-03T02:36:26.177Z,10.10
2022-11-03T02:38:56.433Z,10.10
2022-11-03T02:41:24.364Z,10.10
2022-11-03T02:43:52.380Z,10.20
2022-11-03T02:46:19.680Z,10.20
2022-11-03T02:48:48.009Z,10.20
2022-11-03T02:51:14.592Z,10.20
2022-11-03T02:54:00.607Z,10.20
2022-11-03T02:56:30.020Z,10.20
2022-11-03T02:58:56.724Z,10.20
2022-11-03T03:01:37.214Z,10.30
2022-11-03T03:04:09.152Z,10.30
2022-11-03T03:06:54.681Z,10.30
2022-11-03T03:09:28.569Z,10.30
2022-11-03T03:11:58.448Z,10.30
2022-11-03T03:14:31.836Z,10.30
2022-11-03T03:17:07.533Z,10.20
2022-11-03T03:20:24.282Z,10.20
2022-11-03T03:22:58.511Z,10.10
2022-11-03T03:25:46.721Z,10.10
2022-11-03T03:28:19.160Z,10.10
2022-11-03T03:30:47.271Z,10.10
2022-11-03T03:33:15.885Z,10.10
2022-11-03T03:35:46.922Z,10.10
2022-11-03T03:38:27.446Z,10.00
2022-11-03T03:40:56.675Z,10.00
2022-11-03T03:43:25.680Z,10.00
2022-11-03T03:45:55.395Z,9.90
2022-11-03T03:48:22.568Z,9.90
2022-11-03T03:50:50.634Z,9.90
2022-11-03T03:53:19.316Z,9.90
2022-11-03T03:55:50.868Z,9.90
2022-11-03T03:58:18.098Z,9.90
2022-11-03T04:00:45.151Z,9.90
2022-11-03T04:03:18.012Z,9.90
2022-11-03T04:05:45.195Z,9.80
2022-11-03T04:08:13.557Z,9.90
2022-11-03T04:10:40.388Z,9.80
2022-11-03T04:13:27.184Z,9.80
2022-11-03T04:16:12.872Z,9.80
2022-11-03T04:18:58.337Z,9.80
2022-11-03T04:21:43.954Z,9.90
2022-11-03T04:24:10.783Z,9.80
2022-11-03T04:26:37.429Z,9.80
2022-11-03T04:29:07.068Z,9.80
2022-11-03T04:31:36.344Z,9.80
2022-11-03T04:34:10.188Z,9.80
2022-11-03T04:36:36.760Z,9.80
2022-11-03T04:39:15.699Z,9.80
2022-11-03T04:41:42.722Z,9.80
2022-11-03T04:44:15.011Z,9.90
2022-11-03T04:46:41.791Z,10.00
2022-11-03T04:49:14.572Z,10.00
2022-11-03T04:51:41.481Z,10.10
2022-11-03T04:54:18.899Z,10.00
2022-11-03T04:56:45.567Z,10.00
2022-11-03T04:59:14.216Z,10.10
2022-11-03T05:01:42.640Z,10.00
2022-11-03T05:04:14.858Z,10.00
2022-11-03T05:06:44.800Z,10.00
2022-11-03T05:09:18.623Z,9.90
2022-11-03T05:11:46.411Z,10.00
2022-11-03T05:14:20.603Z,10.00
2022-11-03T05:16:48.471Z,10.00
2022-11-03T05:19:24.077Z,10.00
2022-11-03T05:21:52.714Z,10.00
2022-11-03T05:24:21.806Z,10.00
2022-11-03T05:26:49.543Z,10.00
2022-11-03T05:29:20.526Z,10.00
2022-11-03T05:31:49.270Z,10.00
2022-11-03T05:34:30.977Z,10.00
2022-11-03T05:37:28.232Z,10.00
2022-11-03T05:40:01.053Z,10.00
2022-11-03T05:42:37.833Z,10.00
2022-11-03T05:45:21.375Z,10.00
2022-11-03T05:47:53.425Z,10.00
2022-11-03T05:50:21.487Z,9.90
2022-11-03T05:52:51.339Z,9.90
2022-11-03T05:55:30.503Z,9.90
2022-11-03T05:58:05.569Z,9.90
2022-11-03T06:00:37.369Z,9.90
2022-11-03T06:03:06.168Z,9.90
2022-11-03T06:05:34.304Z,10.00
2022-11-03T06:08:04.023Z,10.00
2022-11-03T06:10:41.850Z,10.00
2022-11-03T06:13:16.587Z,9.90
2022-11-03T06:15:46.498Z,10.00
2022-11-03T06:18:16.701Z,9.90
2022-11-03T06:20:52.110Z,9.90
2022-11-03T06:23:20.108Z,10.00
2022-11-03T06:25:47.035Z,10.00
2022-11-03T06:28:31.435Z,10.00
2022-11-03T06:30:58.156Z,10.00
2022-11-03T06:33:29.988Z,10.00
2022-11-03T06:36:05.978Z,10.00
2022-11-03T06:38:35.333Z,10.00
2022-11-03T06:41:01.970Z,10.00
2022-11-03T06:43:39.649Z,10.10
2022-11-03T06:46:14.812Z,10.10
2022-11-03T06:48:41.569Z,10.10
2022-11-03T06:51:18.002Z,10.10
2022-11-03T06:53:44.747Z,10.20
2022-11-03T06:56:25.018Z,10.20
2022-11-03T06:58:54.255Z,10.20
2022-11-03T07:01:31.395Z,10.30
2022-11-03T07:04:02.317Z,10.30
2022-11-03T07:06:35.776Z,10.30
2022-11-03T07:09:05.960Z,10.30
2022-11-03T07:11:44.816Z,10.20
2022-11-03T07:14:20.030Z,10.20
2022-11-03T07:16:48.307Z,10.20
2022-11-03T07:19:35.725Z,10.30
2022-11-03T07:22:10.117Z,10.30
2022-11-03T07:24:41.186Z,10.40
2022-11-03T07:27:19.712Z,10.50
2022-11-03T07:29:47.188Z,10.60
2022-11-03T07:32:19.689Z,10.60
2022-11-03T07:34:47.887Z,10.70
2022-11-03T07:37:20.832Z,10.80
2022-11-03T07:39:48.734Z,10.90
2022-11-03T07:42:33.424Z,10.90
2022-11-03T07:45:00.147Z,10.90
2022-11-03T07:47:28.855Z,11.00
2022-11-03T07:49:56.454Z,11.10
2022-11-03T07:52:25.734Z,11.10
2022-11-03T07:54:56.846Z,11.20
2022-11-03T07:57:26.909Z,11.10
2022-11-03T08:00:10.627Z,11.20
2022-11-03T08:02:48.896Z,11.30
2022-11-03T08:05:15.738Z,11.40
2022-11-03T08:07:42.440Z,11.40
2022-11-03T08:10:09.595Z,11.50
2022-11-03T08:12:36.168Z,11.50
2022-11-03T08:15:02.850Z,11.50
2022-11-03T08:17:29.433Z,11.60
2022-11-03T08:19:56.042Z,11.60
2022-11-03T08:22:25.759Z,11.70
2022-11-03T08:24:52.959Z,11.80
2022-11-03T08:27:19.680Z,11.80
2022-11-03T08:29:46.321Z,11.90
2022-11-03T08:32:12.876Z,11.90
2022-11-03T08:34:39.509Z,11.90
2022-11-03T08:37:06.172Z,12.00
2022-11-03T08:39:32.958Z,12.10
2022-11-03T08:41:59.532Z,12.10
2022-11-03T08:44:26.266Z,12.10
2022-11-03T08:46:52.864Z,12.20
2022-11-03T08:49:19.452Z,12.30
2022-11-03T08:51:46.025Z,12.40
2022-11-03T08:54:12.617Z,12.50
2022-11-03T08:56:39.290Z,12.60
2022-11-03T08:59:05.931Z,12.70
2022-11-03T09:01:32.498Z,12.80
2022-11-03T09:03:59.784Z,12.90
2022-11-03T09:06:26.412Z,12.90
2022-11-03T09:11:39.689Z,13.10
2022-11-03T09:14:06.280Z,13.20
2022-11-03T09:16:32.885Z,13.20
2022-11-03T09:18:59.509Z,13.20
2022-11-03T09:21:26.225Z,13.20
2022-11-03T09:23:52.865Z,13.20
2022-11-03T09:26:20.370Z,13.10
2022-11-03T09:28:47.255Z,13.20
2022-11-03T09:31:13.847Z,13.10
2022-11-03T09:33:40.576Z,13.10
2022-11-03T09:36:07.506Z,13.10
2022-11-03T09:38:34.108Z,13.10
2022-11-03T09:41:02.125Z,13.10
2022-11-03T09:43:28.917Z,13.10
2022-11-03T09:45:55.535Z,13.10
2022-11-03T09:48:22.298Z,13.10
2022-11-03T09:50:53.247Z,13.20
2022-11-03T09:53:21.573Z,13.20
2022-11-03T09:55:48.544Z,13.10
2022-11-03T09:58:17.386Z,13.20
2022-11-03T10:00:44.906Z,13.00
2022-11-03T10:03:17.824Z,13.00
2022-11-03T10:05:45.980Z,13.00
2022-11-03T10:08:35.289Z,13.00
2022-11-03T10:11:02.724Z,13.10
2022-11-03T10:13:33.458Z,13.10
2022-11-03T10:16:03.257Z,13.10
2022-11-03T10:18:29.883Z,13.20
2022-11-03T10:21:01.359Z,13.20
2022-11-03T10:23:27.980Z,13.30
2022-11-03T10:26:10.405Z,13.40
2022-11-03T10:28:37.586Z,13.50
2022-11-03T10:31:11.105Z,13.50
2022-11-03T10:33:57.963Z,13.60
2022-11-03T10:36:29.904Z,13.60
2022-11-03T10:38:56.936Z,13.70
2022-11-03T10:41:27.564Z,13.80
2022-11-03T10:44:12.264Z,13.80
2022-11-03T10:46:55.794Z,13.90
2022-11-03T10:49:22.871Z,13.90
2022-11-03T10:51:54.558Z,14.00
2022-11-03T10:54:23.412Z,14.10
2022-11-03T10:56:51.694Z,14.20
2022-11-03T10:59:27.268Z,14.30
2022-11-03T11:01:54.259Z,14.40
2022-11-03T11:04:23.899Z,14.30
2022-11-03T11:06:51.364Z,14.20
2022-11-03T11:09:27.335Z,14.20
2022-11-03T11:12:15.505Z,14.30
2022-11-03T11:14:59.370Z,14.40
2022-11-03T11:17:42.420Z,14.30
2022-11-03T11:20:18.768Z,14.40
2022-11-03T11:22:45.822Z,14.40
2022-11-03T11:25:12.724Z,14.50
2022-11-03T11:27:39.305Z,14.50
2022-11-03T11:30:27.230Z,14.60
2022-11-03T11:33:01.431Z,14.50
2022-11-03T11:35:28.040Z,14.50
2022-11-03T11:37:54.913Z,14.50
2022-11-03T11:40:24.599Z,14.50
2022-11-03T11:43:04.266Z,14.50
2022-11-03T11:46:08.693Z,14.60
2022-11-03T11:48:36.132Z,14.60
2022-11-03T11:51:03.838Z,14.70
2022-11-03T11:53:50.969Z,14.60
2022-11-03T11:56:22.654Z,14.50
2022-11-03T11:58:53.871Z,14.60
2022-11-03T12:01:34.314Z,14.50
2022-11-03T12:04:06.569Z,14.50
2022-11-03T12:06:37.818Z,14.50
2022-11-03T12:09:21.612Z,14.50
2022-11-03T12:11:56.279Z,14.40
2022-11-03T12:14:28.867Z,14.40
2022-11-03T12:16:56.109Z,14.30
2022-11-03T12:19:43.909Z,14.30
2022-11-03T12:22:29.037Z,14.20
2022-11-03T12:25:00.728Z,14.20
2022-11-03T12:27:27.287Z,14.20
2022-11-03T12:29:55.720Z,14.10
2022-11-03T12:32:33.978Z,14.10
2022-11-03T12:35:05.753Z,14.10
2022-11-03T12:37:32.412Z,14.10
2022-11-03T12:39:59.133Z,14.00
2022-11-03T12:42:26.001Z,13.90
2022-11-03T12:44:53.007Z,13.90
2022-11-03T12:47:20.240Z,13.90
2022-11-03T12:49:46.867Z,13.90
2022-11-03T12:52:13.459Z,13.80
2022-11-03T12:54:40.065Z,13.80
2022-11-03T12:57:06.825Z,13.80
2022-11-03T12:59:33.433Z,13.80
2022-11-03T13:02:00.171Z,13.70
2022-11-03T13:04:26.901Z,13.70
2022-11-03T13:06:53.546Z,13.70
2022-11-03T13:09:20.132Z,13.60
2022-11-03T13:12:05.420Z,13.60
2022-11-03T13:14:32.012Z,13.70
2022-11-03T13:16:58.806Z,13.70
2022-11-03T13:19:25.413Z,13.70
2022-11-03T13:21:52.008Z,13.70
2022-11-03T13:24:18.594Z,13.80
2022-11-03T13:26:45.249Z,13.80
2022-11-03T13:29:11.864Z,13.80
2022-11-03T13:31:38.454Z,13.80
2022-11-03T13:34:05.089Z,13.80
2022-11-03T13:36:31.765Z,13.80
2022-11-03T13:38:58.485Z,13.80
2022-11-03T13:41:25.094Z,13.70
2022-11-03T13:43:51.741Z,13.70
2022-11-03T13:46:18.349Z,13.60
2022-11-03T13:51:31.659Z,13.60
2022-11-03T13:59:31.540Z,13.60
2022-11-03T14:04:45.089Z,13.40
2022-11-03T14:07:11.863Z,13.40
2022-11-03T14:09:38.804Z,13.40
2022-11-03T14:12:25.501Z,13.50
2022-11-03T14:14:52.115Z,13.50
2022-11-03T14:17:18.792Z,13.50
2022-11-03T14:19:50.413Z,13.60
2022-11-03T14:22:20.344Z,13.60
2022-11-03T14:24:47.166Z,13.60
2022-11-03T14:47:34.537Z,13.30
2022-11-03T14:50:01.130Z,13.20
2022-11-03T14:52:27.933Z,13.10
2022-11-03T14:54:54.861Z,13.00
2022-11-03T14:57:21.510Z,13.00
2022-11-03T14:59:53.208Z,13.00
2022-11-03T15:02:20.417Z,12.90
2022-11-03T15:04:47.249Z,12.80
2022-11-03T15:07:13.927Z,12.80
2022-11-03T15:09:40.634Z,12.70
2022-11-03T15:12:07.491Z,12.70
2022-11-03T15:14:34.124Z,12.70
2022-11-03T15:17:01.524Z,12.60
2022-11-03T15:19:28.168Z,12.60
2022-11-03T15:21:54.911Z,12.60
2022-11-03T15:27:08.081Z,12.60
2022-11-03T15:29:36.109Z,12.60
2022-11-03T15:32:02.899Z,12.50
2022-11-03T15:34:29.653Z,12.50
2022-11-03T15:36:56.317Z,12.40
2022-11-03T15:39:22.919Z,12.40
2022-11-03T15:41:49.513Z,12.30
2022-11-03T15:44:16.202Z,12.30
2022-11-03T15:46:42.929Z,12.30
2022-11-03T15:49:09.566Z,12.20
2022-11-03T15:51:36.184Z,12.20
2022-11-03T15:54:03.439Z,12.20
2022-11-03T15:56:30.437Z,12.20
2022-11-03T15:58:57.578Z,12.30
2022-11-03T16:01:24.359Z,12.30
2022-11-03T16:03:51.677Z,12.40
2022-11-03T16:06:18.330Z,12.50
2022-11-03T16:08:45.403Z,12.60
2022-11-03T16:11:12.542Z,12.70
2022-11-03T16:13:39.566Z,12.80
2022-11-03T16:16:06.964Z,12.80
2022-11-03T16:18:33.951Z,12.80
2022-11-03T16:21:00.986Z,12.90
2022-11-03T16:23:28.041Z,13.00
2022-11-03T16:25:55.190Z,12.90
2022-11-03T16:28:21.921Z,13.00
2022-11-03T16:30:54.083Z,12.90
2022-11-03T16:33:21.592Z,12.90
2022-11-03T16:35:48.476Z,12.80
2022-11-03T16:38:15.411Z,12.70
2022-11-03T16:40:42.786Z,12.50
2022-11-03T16:43:10.355Z,12.40
2022-11-03T16:45:38.218Z,12.30
2022-11-03T16:48:07.171Z,12.20
2022-11-03T16:50:34.599Z,12.10
2022-11-03T16:53:01.296Z,12.10
2022-11-03T16:55:28.250Z,12.10
2022-11-03T16:57:54.981Z,12.00
2022-11-03T17:00:21.718Z,12.00
2022-11-03T17:02:48.498Z,12.00
2022-11-03T17:05:17.352Z,12.00
2022-11-03T17:07:47.508Z,11.90
2022-11-03T17:10:18.657Z,12.00
2022-11-03T17:12:45.271Z,12.00
2022-11-03T17:15:11.860Z,12.00
2022-11-03T17:17:38.527Z,12.00
2022-11-03T17:20:06.387Z,12.10
2022-11-03T17:22:33.000Z,12.10
2022-11-03T17:24:59.659Z,12.10
2022-11-03T17:27:32.082Z,12.10
2022-11-03T17:30:04.704Z,12.10
2022-11-03T17:32:40.552Z,12.20
2022-11-03T17:35:21.671Z,12.20
2022-11-03T17:37:49.599Z,12.20
2022-11-03T17:40:19.037Z,12.20
2022-11-03T17:42:45.985Z,12.20
2022-11-03T17:45:18.024Z,12.20
2022-11-03T17:47:44.901Z,12.10
2022-11-03T17:50:16.882Z,12.10
2022-11-03T17:52:48.289Z,12.10
2022-11-03T17:55:23.029Z,12.10
2022-11-03T17:57:49.950Z,12.10
2022-11-03T18:00:23.298Z,12.10
2022-11-03T18:02:51.459Z,12.10
2022-11-03T18:05:22.875Z,12.00
2022-11-03T18:07:50.760Z,12.00
2022-11-03T18:10:19.256Z,12.10
2022-11-03T18:13:06.352Z,12.00
2022-11-03T18:15:36.771Z,12.00
2022-11-03T18:18:12.486Z,12.10
2022-11-03T18:20:41.093Z,12.00
2022-11-03T18:23:23.095Z,12.10
2022-11-03T18:25:51.014Z,12.10
2022-11-03T18:28:18.647Z,12.10
2022-11-03T18:30:47.064Z,12.10
2022-11-03T18:33:34.614Z,12.10
2022-11-03T18:36:06.555Z,12.10
2022-11-03T18:38:36.391Z,12.00
2022-11-03T18:41:23.049Z,12.10
2022-11-03T18:43:49.627Z,12.00
2022-11-03T18:46:16.211Z,12.10
2022-11-03T18:48:42.786Z,12.20
2022-11-03T18:51:09.583Z,12.40
2022-11-03T18:53:36.174Z,12.50
2022-11-03T18:56:02.777Z,12.60
2022-11-03T18:58:29.402Z,12.60
2022-11-03T19:00:56.077Z,12.60
2022-11-03T19:03:23.477Z,12.60
2022-11-03T19:05:52.659Z,12.60
2022-11-03T19:08:29.856Z,12.60
2022-11-03T19:10:57.183Z,12.60
2022-11-03T19:13:36.424Z,12.60
2022-11-03T19:16:15.058Z,12.60
2022-11-03T19:18:42.608Z,12.60
2022-11-03T19:21:14.026Z,12.60
2022-11-03T19:23:40.742Z,12.70
2022-11-03T19:26:15.928Z,12.70
2022-11-03T19:28:42.800Z,12.70
2022-11-03T19:31:20.048Z,12.70
2022-11-03T19:33:47.880Z,12.80
2022-11-03T19:36:14.673Z,12.80
2022-11-03T19:38:41.319Z,12.70
2022-11-03T19:41:35.692Z,12.70
2022-11-03T19:44:05.700Z,12.70
2022-11-03T19:46:33.039Z,12.70
2022-11-03T19:49:00.274Z,12.70
2022-11-03T19:51:29.526Z,12.70
2022-11-03T19:53:57.414Z,12.70
2022-11-03T19:56:24.507Z,12.60
2022-11-03T19:58:51.101Z,12.60
2022-11-03T20:01:17.947Z,12.60
2022-11-03T20:03:44.837Z,12.50
2022-11-03T20:06:16.660Z,12.50
2022-11-03T20:08:47.200Z,12.40
2022-11-03T20:11:13.785Z,12.40
2022-11-03T20:13:42.373Z,12.40
2022-11-03T20:16:18.144Z,12.30
2022-11-03T20:18:44.711Z,12.30
2022-11-03T20:21:15.749Z,12.30
2022-11-03T20:23:43.417Z,12.30
2022-11-03T20:26:15.482Z,12.30
2022-11-03T20:28:42.241Z,12.30
2022-11-03T20:31:08.851Z,12.30
2022-11-03T20:33:36.063Z,12.30
2022-11-03T20:36:04.298Z,12.40
2022-11-03T20:38:31.823Z,12.40
2022-11-03T20:41:03.457Z,12.40
2022-11-03T20:43:43.145Z,12.40
2022-11-03T20:46:27.767Z,12.40
2022-11-03T20:48:55.431Z,12.50
2022-11-03T20:51:24.972Z,12.50
2022-11-03T20:53:51.973Z,12.50
2022-11-03T20:56:21.228Z,12.50
2022-11-03T20:58:48.172Z,12.50
2022-11-03T21:01:24.736Z,12.50
2022-11-03T21:04:00.211Z,12.40
2022-11-03T21:06:28.800Z,12.40
2022-11-03T21:08:55.564Z,12.40
2022-11-03T21:11:24.359Z,12.40
2022-11-03T21:13:53.198Z,12.40
2022-11-03T21:16:38.792Z,12.40
2022-11-03T21:19:37.149Z,12.30
2022-11-03T21:22:30.949Z,12.40
2022-11-03T21:25:00.454Z,12.40
2022-11-03T21:27:27.021Z,12.30
2022-11-03T21:29:59.407Z,12.40
2022-11-03T21:32:26.870Z,12.30
2022-11-03T21:34:53.445Z,12.30
2022-11-03T21:37:20.280Z,12.30
2022-11-03T21:39:47.390Z,12.20
2022-11-03T21:42:34.166Z,12.10
2022-11-03T21:45:01.009Z,12.10
2022-11-03T21:47:28.224Z,12.00
2022-11-03T21:49:54.893Z,11.90
2022-11-03T21:52:31.570Z,11.90
2022-11-03T21:54:59.713Z,11.80
2022-11-03T21:57:26.511Z,11.80
2022-11-03T21:59:53.210Z,11.80
2022-11-03T22:02:19.973Z,11.70
2022-11-03T22:04:46.783Z,11.80
2022-11-03T22:07:13.396Z,11.70
2022-11-03T22:09:39.937Z,11.70
2022-11-03T22:12:07.056Z,11.70
2022-11-03T22:14:53.917Z,11.70
2022-11-03T22:17:20.637Z,11.60
2022-11-03T22:20:05.691Z,11.60
2022-11-03T22:22:51.300Z,11.60
2022-11-03T22:25:36.606Z,11.60
2022-11-03T22:28:03.269Z,11.60
2022-11-03T22:30:48.336Z,11.60
2022-11-03T22:33:14.948Z,11.50
2022-11-03T22:36:00.110Z,11.60
2022-11-03T22:38:45.513Z,11.60
2022-11-03T22:41:30.997Z,11.60
2022-11-03T22:44:16.447Z,11.50
2022-11-03T22:46:43.121Z,11.60
2022-11-03T22:49:09.751Z,11.50
2022-11-03T22:51:36.870Z,11.50
2022-11-03T22:54:12.494Z,11.50
2022-11-03T22:56:39.928Z,11.50
2022-11-03T22:59:08.037Z,11.50
2022-11-03T23:01:35.265Z,11.50
2022-11-03T23:04:02.005Z,11.50
2022-11-03T23:06:33.851Z,11.50
2022-11-03T23:09:01.312Z,11.50
2022-11-03T23:13:40.721Z,11.50
2022-11-03T23:16:16.267Z,11.50
2022-11-03T23:19:06.207Z,11.50
2022-11-03T23:21:34.457Z,11.50
2022-11-03T23:24:19.947Z,11.50
2022-11-03T23:26:47.346Z,11.50
2022-11-03T23:29:14.687Z,11.50
2022-11-03T23:31:43.181Z,11.50
2022-11-03T23:34:11.139Z,11.50
2022-11-03T23:36:38.001Z,11.50
2022-11-03T23:39:06.230Z,11.50
2022-11-03T23:41:33.293Z,11.50
2022-11-03T23:43:59.877Z,11.40
2022-11-03T23:46:46.944Z,11.40
2022-11-03T23:49:14.520Z,11.50
2022-11-03T23:51:44.476Z,11.40
2022-11-03T23:54:12.654Z,11.50
2022-11-03T23:57:00.088Z,11.50
2022-11-03T23:59:27.779Z,11.50
